Carlton, Texas
Current Conditions -  °F | °C
As of 4:55 PM on Tuesday 21 Oct 2014 (Local Time) from KMNZ Reporting Station
Clear Clear  
Wind Chill: 81°   Ceiling: Unl
Heat Index: 81°   Visibility: 10mi
Dew Point: 47°   Wind: 14mph
Humidity: 31%   Direction: 130°SE
Pressure: 30.03"   Gusts: 21mph
Location:  31.92°N, 98.17°W
Report Text: KMNZ 212155Z AUTO 13012G18KT 10SM CLR 27/08 A3003 RMK AO2 T02710084
Loading
Personal Weather Stations






























Interactive Weather Map
Tropical Storm Tracking
New forecast layout! Learn more

10-Day Weather Forecast

Advertisements
Track Severe Weather on mobile